Time;durP1;ratioP1;P1;durP2;ratioP2;P2;SDS_P1;SDS_P2;PMS_P1;PMS_P2;Temp;Humidity;BMP_temperature;BMP_pressure;BME280_temperature;BME280_humidity;BME280_pressure;Samples;Min_cycle;Max_cycle;Signal;HPM_P1;HPM_P2
2022/09/08 00:02:24;;;;;;;12.30;10.03;;;22.50;99.90;;;;;;5055882;28;20209;-88
2022/09/08 00:04:50;;;;;;;18.00;10.83;;;22.50;99.90;;;;;;5037878;28;20250;-89
2022/09/08 00:07:16;;;;;;;11.90;10.63;;;22.40;99.90;;;;;;5056176;28;20821;-89
2022/09/08 00:09:42;;;;;;;12.33;11.07;;;22.40;99.90;;;;;;5038325;28;20459;-94
2022/09/08 00:12:08;;;;;;;12.70;10.10;;;22.30;99.90;;;;;;5038729;28;20187;-94
2022/09/08 00:14:34;;;;;;;13.67;10.10;;;22.30;99.90;;;;;;5057282;28;20446;-89
2022/09/08 00:17:02;;;;;;;16.10;11.20;;;22.30;99.90;;;;;;5039450;28;20916;-95
2022/09/08 00:19:28;;;;;;;12.63;11.30;;;22.30;99.90;;;;;;5038746;28;20451;-88
2022/09/08 00:21:53;;;;;;;13.53;10.77;;;22.30;99.90;;;;;;5056644;28;20431;-89
2022/09/08 00:24:19;;;;;;;15.03;10.30;;;22.30;99.90;;;;;;5056333;28;20310;-94
2022/09/08 00:26:45;;;;;;;13.40;10.57;;;22.30;99.90;;;;;;5037649;28;20237;-88
2022/09/08 00:29:11;;;;;;;14.53;10.23;;;22.30;99.90;;;;;;5038074;28;20218;-89
2022/09/08 00:31:41;;;;;;;16.03;11.00;;;22.30;99.90;;;;;;5044663;28;20548;-91
2022/09/08 00:34:07;;;;;;;15.33;10.90;;;22.30;99.90;;;;;;5069794;28;20963;-94
2022/09/08 00:36:33;;;;;;;11.73;9.80;;;22.20;99.90;;;;;;5059810;28;20412;-93
2022/09/08 00:39:00;;;;;;;14.33;11.40;;;22.20;99.90;;;;;;5038356;28;20507;-95
2022/09/08 00:41:27;;;;;;;13.50;10.47;;;22.20;99.90;;;;;;5037187;28;20416;-93
2022/09/08 00:43:59;;;;;;;12.03;10.10;;;22.10;99.90;;;;;;5037796;28;20994;-89
2022/09/08 00:46:31;;;;;;;11.80;10.57;;;22.10;99.90;;;;;;5054394;28;20517;-89
2022/09/08 00:49:10;;;;;;;11.83;10.03;;;22.10;99.90;;;;;;5054946;28;20428;-93
2022/09/08 00:51:42;;;;;;;13.03;10.60;;;22.00;99.90;;;;;;5037537;28;20454;-94
2022/09/08 00:54:11;;;;;;;12.47;10.33;;;22.00;99.90;;;;;;5055185;28;20439;-96
2022/09/08 00:56:39;;;;;;;14.60;11.80;;;21.90;99.90;;;;;;5037621;28;20418;-89
2022/09/08 00:59:05;;;;;;;13.10;11.70;;;21.90;99.90;;;;;;5038736;28;20439;-93
2022/09/08 01:01:35;;;;;;;13.23;10.70;;;21.90;99.90;;;;;;5040330;28;20927;-94
2022/09/08 01:04:03;;;;;;;13.90;10.93;;;21.90;99.90;;;;;;5043163;28;20481;-95
2022/09/08 01:12:46;;;;;;;16.03;10.63;;;21.70;99.90;;;;;;5060116;28;20409;-96
2022/09/08 01:15:20;;;;;;;15.73;11.53;;;21.70;99.90;;;;;;5041707;28;20504;-89
2022/09/08 01:17:48;;;;;;;12.33;10.43;;;21.70;99.90;;;;;;5064796;28;20461;-89
2022/09/08 01:20:16;;;;;;;16.83;10.83;;;21.60;99.90;;;;;;5062868;28;20578;-89
2022/09/08 01:22:42;;;;;;;13.90;10.90;;;21.60;99.90;;;;;;5036292;28;20407;-89
2022/09/08 01:25:16;;;;;;;14.20;9.80;;;21.50;99.90;;;;;;5036333;28;20498;-93
2022/09/08 01:27:44;;;;;;;11.43;10.23;;;21.50;99.90;;;;;;5036402;28;20259;-89
2022/09/08 01:30:10;;;;;;;13.73;11.37;;;21.50;99.90;;;;;;5054482;28;20430;-94
2022/09/08 01:32:40;;;;;;;13.70;11.40;;;21.40;99.90;;;;;;5036286;28;20417;-89
2022/09/08 01:35:07;;;;;;;13.43;10.50;;;21.40;99.90;;;;;;5036467;28;20442;-96
2022/09/08 01:37:32;;;;;;;12.30;10.03;;;21.30;99.90;;;;;;5036376;28;20403;-89
2022/09/08 01:39:58;;;;;;;11.90;10.17;;;21.30;99.90;;;;;;5036477;28;20457;-94
2022/09/08 01:42:25;;;;;;;17.83;11.80;;;21.30;99.90;;;;;;5036489;28;20178;-89
2022/09/08 01:44:50;;;;;;;12.57;10.53;;;21.20;99.90;;;;;;5055054;28;20649;-95
2022/09/08 01:47:16;;;;;;;15.03;11.50;;;21.20;99.90;;;;;;5040925;28;20510;-92
2022/09/08 01:49:42;;;;;;;14.60;12.33;;;21.10;99.90;;;;;;5047512;28;20679;-89
2022/09/08 01:52:08;;;;;;;18.33;11.87;;;21.10;99.90;;;;;;5064865;28;20233;-90
2022/09/08 01:54:34;;;;;;;13.80;11.00;;;21.10;99.90;;;;;;5045952;28;20509;-94
2022/09/08 01:57:00;;;;;;;13.90;12.27;;;21.00;99.90;;;;;;5046809;28;20418;-89
2022/09/08 01:59:26;;;;;;;13.33;11.53;;;21.00;99.90;;;;;;5058867;28;21000;-89
2022/09/08 02:01:51;;;;;;;15.10;11.33;;;21.00;99.90;;;;;;5040667;28;20407;-89
2022/09/08 02:04:17;;;;;;;13.40;11.83;;;21.00;99.90;;;;;;5041177;28;20210;-90
2022/09/08 02:06:43;;;;;;;18.40;11.03;;;21.00;99.90;;;;;;5041488;28;20217;-89
2022/09/08 02:09:09;;;;;;;18.40;11.40;;;21.00;99.90;;;;;;5042127;28;20489;-95
2022/09/08 02:11:35;;;;;;;15.67;11.30;;;20.90;99.90;;;;;;5062291;28;20253;-89
2022/09/08 02:14:02;;;;;;;18.83;11.60;;;20.90;99.90;;;;;;5060291;28;20190;-90
2022/09/08 02:16:29;;;;;;;13.83;11.27;;;20.90;99.90;;;;;;5040059;28;20220;-94
2022/09/08 02:18:55;;;;;;;15.13;11.03;;;20.80;99.90;;;;;;5057749;28;20449;-93
2022/09/08 02:21:24;;;;;;;17.40;12.30;;;20.80;99.90;;;;;;5057497;28;20841;-89
2022/09/08 02:23:50;;;;;;;13.70;11.83;;;20.70;99.90;;;;;;5040101;28;20962;-93
2022/09/08 02:26:26;;;;;;;13.30;10.30;;;20.60;99.90;;;;;;5040104;28;20601;-95
2022/09/08 02:28:53;;;;;;;20.87;11.83;;;20.60;99.90;;;;;;5040971;28;20469;-93
2022/09/08 02:31:20;;;;;;;12.70;10.77;;;20.50;99.90;;;;;;5042781;28;20410;-89
2022/09/08 02:33:45;;;;;;;14.10;11.30;;;20.50;99.90;;;;;;5064084;28;20426;-93
2022/09/08 02:36:11;;;;;;;14.97;11.80;;;20.50;99.90;;;;;;5048689;28;20417;-90
2022/09/08 02:38:37;;;;;;;15.73;11.43;;;20.50;99.90;;;;;;5062578;28;20419;-94
2022/09/08 02:41:04;;;;;;;13.03;11.57;;;20.50;99.90;;;;;;5041257;28;20423;-89
2022/09/08 02:43:29;;;;;;;13.77;11.67;;;20.40;99.90;;;;;;5042004;28;20189;-94
2022/09/08 02:46:06;;;;;;;14.20;11.60;;;20.40;99.90;;;;;;5041669;28;20477;-94
2022/09/08 02:48:31;;;;;;;19.70;11.50;;;20.40;99.90;;;;;;5041547;28;20423;-93
2022/09/08 02:51:02;;;;;;;13.70;10.90;;;20.30;99.90;;;;;;5058907;28;20958;-91
2022/09/08 02:53:29;;;;;;;14.03;11.67;;;20.30;99.90;;;;;;5050665;28;20653;-89
2022/09/08 02:55:56;;;;;;;14.03;11.20;;;20.30;99.90;;;;;;5039151;28;20513;-89
2022/09/08 02:58:22;;;;;;;13.50;10.87;;;20.30;99.90;;;;;;5038556;28;20469;-93
2022/09/08 03:00:48;;;;;;;14.47;11.07;;;20.30;99.90;;;;;;5038764;28;20474;-94
2022/09/08 03:03:14;;;;;;;14.80;10.70;;;20.30;99.90;;;;;;5038561;28;20478;-89
2022/09/08 03:05:40;;;;;;;14.73;10.80;;;20.30;99.90;;;;;;5038769;28;20221;-94
2022/09/08 03:08:06;;;;;;;14.17;11.50;;;20.30;99.90;;;;;;5038610;28;20908;-93
2022/09/08 03:10:32;;;;;;;17.13;12.70;;;20.30;99.90;;;;;;5056082;28;20423;-94
2022/09/08 03:12:58;;;;;;;15.97;12.37;;;20.30;99.90;;;;;;5056244;28;20242;-93
2022/09/08 03:15:26;;;;;;;14.83;10.70;;;20.30;99.90;;;;;;5038397;28;20963;-94
2022/09/08 03:17:53;;;;;;;13.93;10.23;;;20.30;99.90;;;;;;5056162;28;20410;-89
2022/09/08 03:20:19;;;;;;;13.20;10.60;;;20.30;99.90;;;;;;5059043;28;20427;-94
2022/09/08 03:22:45;;;;;;;16.30;12.33;;;20.30;99.90;;;;;;5060336;28;20406;-92
2022/09/08 03:25:10;;;;;;;14.57;11.30;;;20.30;99.90;;;;;;5060226;28;20475;-94
2022/09/08 03:27:37;;;;;;;13.13;11.10;;;20.20;99.90;;;;;;5039538;28;20197;-93
2022/09/08 03:30:12;;;;;;;12.90;11.03;;;20.20;99.90;;;;;;5039198;28;20628;-89
2022/09/08 03:32:39;;;;;;;14.00;11.07;;;20.20;99.90;;;;;;5039096;28;20610;-89
2022/09/08 03:35:07;;;;;;;13.97;11.43;;;20.20;99.90;;;;;;5056997;28;20466;-94
2022/09/08 03:37:34;;;;;;;15.67;11.13;;;20.20;99.90;;;;;;5039615;28;20410;-93
2022/09/08 03:39:59;;;;;;;14.17;11.00;;;20.20;99.90;;;;;;5041623;28;20454;-94
2022/09/08 03:42:25;;;;;;;15.87;11.33;;;20.10;99.90;;;;;;5038492;28;20469;-89
2022/09/08 03:44:51;;;;;;;21.10;12.00;;;20.20;99.90;;;;;;5038539;28;20241;-94
2022/09/08 03:47:16;;;;;;;16.20;11.87;;;20.20;99.90;;;;;;5037737;28;20223;-89
2022/09/08 03:49:42;;;;;;;13.90;11.40;;;20.20;99.90;;;;;;5056021;28;20212;-93
2022/09/08 03:52:08;;;;;;;14.43;11.40;;;20.20;99.90;;;;;;5056209;28;20546;-92
2022/09/08 03:54:50;;;;;;;16.17;11.20;;;20.20;99.90;;;;;;5038065;28;20218;-94
2022/09/08 03:57:21;;;;;;;17.37;12.10;;;20.20;99.90;;;;;;5037731;28;20192;-94
2022/09/08 03:59:51;;;;;;;19.10;11.70;;;20.20;99.90;;;;;;5056158;28;20540;-92
2022/09/08 04:02:17;;;;;;;14.10;11.57;;;20.20;99.90;;;;;;5055980;28;20863;-94
2022/09/08 04:04:43;;;;;;;14.80;11.27;;;20.20;99.90;;;;;;5056500;28;20449;-94
2022/09/08 04:07:09;;;;;;;14.33;12.33;;;20.20;99.90;;;;;;5045478;28;21046;-91
2022/09/08 04:09:37;;;;;;;13.13;11.20;;;20.20;99.90;;;;;;5037927;28;20470;-94
2022/09/08 04:12:04;;;;;;;15.50;11.53;;;20.20;99.90;;;;;;5038154;28;20423;-89
2022/09/08 04:14:30;;;;;;;13.27;11.77;;;20.10;99.90;;;;;;5056533;28;20461;-89
2022/09/08 04:16:56;;;;;;;16.37;11.63;;;20.00;99.90;;;;;;5038877;28;20446;-92
2022/09/08 04:19:22;;;;;;;15.80;12.77;;;20.00;99.90;;;;;;5038679;28;20458;-93
2022/09/08 04:21:48;;;;;;;16.10;12.87;;;19.90;99.90;;;;;;5055472;28;20403;-89
2022/09/08 04:24:14;;;;;;;14.50;11.27;;;19.90;99.90;;;;;;5038525;28;20216;-94
2022/09/08 04:26:40;;;;;;;18.93;12.57;;;19.90;99.90;;;;;;5055908;28;20470;-94
2022/09/08 04:29:07;;;;;;;17.27;11.50;;;19.90;99.90;;;;;;5055950;28;20480;-89
2022/09/08 04:31:34;;;;;;;17.33;11.80;;;19.90;99.90;;;;;;5047964;28;20426;-94
2022/09/08 04:34:00;;;;;;;13.57;11.60;;;19.90;99.90;;;;;;5037094;28;20430;-89
2022/09/08 04:36:27;;;;;;;12.60;10.90;;;19.90;99.90;;;;;;5054680;28;20434;-93
2022/09/08 04:38:55;;;;;;;12.77;10.93;;;19.90;99.90;;;;;;5037099;28;20497;-93
2022/09/08 04:41:21;;;;;;;15.00;11.20;;;19.90;99.90;;;;;;5054481;28;20403;-93
2022/09/08 04:43:46;;;;;;;13.97;10.57;;;19.90;99.90;;;;;;5037858;28;20537;-89
2022/09/08 04:46:14;;;;;;;16.07;11.20;;;19.90;99.90;;;;;;5043411;28;20497;-90
2022/09/08 04:48:41;;;;;;;16.80;11.53;;;19.90;99.90;;;;;;5066207;28;20197;-89
2022/09/08 04:51:09;;;;;;;15.17;10.97;;;19.90;99.90;;;;;;5042661;28;20451;-93
2022/09/08 04:53:36;;;;;;;15.40;11.47;;;19.90;99.90;;;;;;5068075;28;20494;-91
2022/09/08 04:56:04;;;;;;;14.33;11.37;;;19.80;99.90;;;;;;5044421;28;20517;-93
2022/09/08 04:58:32;;;;;;;17.60;13.10;;;19.80;99.90;;;;;;5036135;28;20893;-89
2022/09/08 05:01:05;;;;;;;14.57;10.60;;;19.80;99.90;;;;;;5035582;28;20433;-94
2022/09/08 05:03:31;;;;;;;15.73;12.47;;;19.80;99.90;;;;;;5035594;28;20437;-93
2022/09/08 05:06:05;;;;;;;13.90;12.00;;;19.80;99.90;;;;;;5032134;28;20482;-94
2022/09/08 05:08:31;;;;;;;17.70;12.50;;;19.80;99.90;;;;;;5026868;28;20280;-92
2022/09/08 05:10:59;;;;;;;14.70;12.37;;;19.80;99.90;;;;;;5035855;28;20445;-89
2022/09/08 05:13:24;;;;;;;16.00;12.47;;;19.80;99.90;;;;;;5054077;28;20903;-94
2022/09/08 05:15:50;;;;;;;13.27;10.83;;;19.80;99.90;;;;;;5037075;28;20505;-89
2022/09/08 05:18:16;;;;;;;15.00;12.40;;;19.90;99.90;;;;;;5018618;28;20204;-94
2022/09/08 05:20:41;;;;;;;15.97;11.97;;;20.00;99.90;;;;;;5015536;28;20207;-93
2022/09/08 05:23:07;;;;;;;16.57;12.13;;;20.00;99.90;;;;;;5017849;28;20185;-89
2022/09/08 05:25:32;;;;;;;13.80;11.73;;;20.00;99.90;;;;;;5034781;28;20230;-94
2022/09/08 05:27:58;;;;;;;13.87;11.87;;;20.10;99.90;;;;;;5035613;28;20214;-89
2022/09/08 05:30:24;;;;;;;14.77;11.67;;;20.10;99.90;;;;;;5040400;28;20224;-93
2022/09/08 05:32:49;;;;;;;14.20;11.43;;;20.10;99.90;;;;;;5038230;28;20177;-91
2022/09/08 05:35:15;;;;;;;15.90;12.93;;;20.10;99.90;;;;;;5040472;28;20209;-88
2022/09/08 05:37:41;;;;;;;16.13;11.80;;;20.20;99.90;;;;;;5047541;28;20184;-95
2022/09/08 05:40:07;;;;;;;14.10;11.77;;;20.20;99.90;;;;;;5040008;28;20625;-91
2022/09/08 05:42:33;;;;;;;17.63;12.57;;;20.20;99.90;;;;;;5041976;28;20264;-92
2022/09/08 05:44:58;;;;;;;17.60;12.20;;;20.20;99.90;;;;;;5040428;28;20845;-93
2022/09/08 05:47:24;;;;;;;15.07;12.87;;;20.30;99.90;;;;;;5057920;28;20324;-90
2022/09/08 05:49:50;;;;;;;13.43;12.03;;;20.30;99.90;;;;;;5061135;28;20674;-92
2022/09/08 05:52:16;;;;;;;15.37;12.33;;;20.40;99.90;;;;;;5060798;28;20186;-89
2022/09/08 05:54:42;;;;;;;15.90;13.67;;;20.40;99.90;;;;;;5037804;28;20305;-93
2022/09/08 05:57:08;;;;;;;14.77;11.43;;;20.50;99.90;;;;;;5057219;28;20406;-93
2022/09/08 05:59:34;;;;;;;14.47;12.10;;;20.60;99.90;;;;;;5077779;28;20445;-93
2022/09/08 06:01:59;;;;;;;16.93;12.27;;;20.60;99.90;;;;;;5061848;28;20252;-93
2022/09/08 06:04:25;;;;;;;15.77;12.60;;;20.70;99.90;;;;;;5060235;28;20470;-94
2022/09/08 06:06:51;;;;;;;18.77;13.40;;;20.70;99.90;;;;;;5040665;28;20304;-89
2022/09/08 06:09:16;;;;;;;15.83;13.40;;;20.80;99.90;;;;;;5040501;28;20217;-93
2022/09/08 06:11:42;;;;;;;14.13;11.90;;;20.80;99.90;;;;;;5040133;28;20235;-92
2022/09/08 06:14:10;;;;;;;17.10;13.50;;;20.90;99.90;;;;;;5043102;28;20209;-89
2022/09/08 06:16:35;;;;;;;18.47;13.33;;;20.90;99.90;;;;;;5054873;28;20257;-89
2022/09/08 06:19:02;;;;;;;15.37;13.77;;;21.00;99.90;;;;;;5047003;28;20470;-95
2022/09/08 06:21:32;;;;;;;17.33;14.43;;;21.10;99.90;;;;;;5042358;28;20395;-89
2022/09/08 06:24:02;;;;;;;14.77;12.60;;;21.10;99.90;;;;;;5037292;28;20419;-94
2022/09/08 06:26:47;;;;;;;16.00;13.50;;;21.20;99.90;;;;;;5038604;28;21005;-89
2022/09/08 06:29:25;;;;;;;15.67;12.13;;;21.20;99.90;;;;;;5040026;28;20459;-92
2022/09/08 06:31:57;;;;;;;17.00;12.93;;;21.30;99.90;;;;;;5039890;28;20510;-93
2022/09/08 06:34:31;;;;;;;17.90;13.37;;;21.30;99.90;;;;;;5039699;28;20458;-89
2022/09/08 06:37:07;;;;;;;21.17;14.43;;;21.30;99.90;;;;;;5039005;28;20424;-93
2022/09/08 06:39:54;;;;;;;19.60;14.77;;;21.40;99.90;;;;;;5031630;28;20457;-94
2022/09/08 06:42:29;;;;;;;21.10;13.00;;;21.50;99.90;;;;;;5024478;28;21020;-94
2022/09/08 06:44:55;;;;;;;20.13;13.87;;;21.50;99.90;;;;;;5029910;28;20462;-92
2022/09/08 06:47:26;;;;;;;17.37;12.93;;;21.60;99.90;;;;;;5042998;28;20485;-89
2022/09/08 06:49:52;;;;;;;15.10;12.90;;;21.70;99.90;;;;;;5039402;28;20451;-96
2022/09/08 06:52:24;;;;;;;16.20;12.30;;;21.80;99.90;;;;;;5055630;28;20421;-89
2022/09/08 06:55:04;;;;;;;18.00;13.70;;;21.90;99.90;;;;;;5075940;28;20217;-93
2022/09/08 06:57:44;;;;;;;17.50;13.60;;;21.90;99.90;;;;;;5080607;28;20491;-89
2022/09/08 07:00:21;;;;;;;14.77;11.90;;;22.00;99.90;;;;;;5036935;28;20462;-89
2022/09/08 07:03:21;;;;;;;12.60;11.30;;;22.10;99.90;;;;;;5033225;28;20515;-95
2022/09/08 07:06:05;;;;;;;12.90;11.37;;;22.20;99.90;;;;;;5013763;28;21079;-95
2022/09/08 07:08:52;;;;;;;15.07;11.87;;;22.30;99.90;;;;;;5016136;28;20443;-94
2022/09/08 07:11:40;;;;;;;12.10;10.80;;;22.30;99.90;;;;;;5049759;28;20952;-89
2022/09/08 07:14:43;;;;;;;12.70;11.00;;;22.50;99.90;;;;;;5014778;28;20438;-90
2022/09/08 07:17:36;;;;;;;13.30;11.13;;;22.60;99.90;;;;;;5032506;28;20479;-89
2022/09/08 07:20:08;;;;;;;13.37;11.20;;;22.70;99.90;;;;;;5041807;28;20464;-94
2022/09/08 07:22:49;;;;;;;14.73;13.23;;;22.80;99.90;;;;;;5053309;28;20420;-89
2022/09/08 07:25:55;;;;;;;13.10;10.93;;;22.90;99.90;;;;;;5034911;28;20477;-90
2022/09/08 07:28:31;;;;;;;16.00;11.50;;;23.00;99.90;;;;;;5005124;28;20431;-92
2022/09/08 07:31:00;;;;;;;15.50;12.20;;;23.10;99.90;;;;;;5034369;28;20441;-90
2022/09/08 07:33:41;;;;;;;12.40;11.10;;;23.20;99.90;;;;;;5039287;28;20536;-89
2022/09/08 07:36:33;;;;;;;11.30;10.03;;;23.30;99.90;;;;;;5033832;28;21084;-89
2022/09/08 07:39:04;;;;;;;12.70;11.10;;;23.50;99.90;;;;;;5033998;28;20452;-89
2022/09/08 07:41:37;;;;;;;14.30;10.80;;;23.60;99.90;;;;;;5058198;28;21014;-89
2022/09/08 07:44:14;;;;;;;12.10;10.07;;;23.60;99.90;;;;;;5041173;28;20438;-94
2022/09/08 07:46:59;;;;;;;9.63;8.73;;;23.70;99.90;;;;;;5042300;28;20442;-93
2022/09/08 07:49:46;;;;;;;15.40;10.23;;;23.80;99.90;;;;;;5042273;28;20469;-94
2022/09/08 07:52:35;;;;;;;12.70;9.37;;;23.90;99.90;;;;;;5037987;28;20436;-90
2022/09/08 07:55:27;;;;;;;9.37;8.47;;;24.10;99.90;;;;;;5036418;28;20475;-89
2022/09/08 07:58:34;;;;;;;16.43;11.10;;;24.20;99.90;;;;;;5037395;28;20422;-94
2022/09/08 08:01:20;;;;;;;9.67;8.67;;;24.30;99.90;;;;;;5035704;28;20447;-89
2022/09/08 08:04:04;;;;;;;10.13;7.67;;;24.40;99.90;;;;;;5053018;28;20447;-94
2022/09/08 08:06:41;;;;;;;12.77;9.40;;;24.50;99.90;;;;;;5053549;28;20481;-89
2022/09/08 08:09:16;;;;;;;9.67;7.83;;;24.60;99.90;;;;;;5050531;28;20458;-94
2022/09/08 08:12:10;;;;;;;11.63;8.83;;;24.70;99.90;;;;;;5035271;28;20411;-95
2022/09/08 08:14:45;;;;;;;10.20;9.30;;;24.90;99.90;;;;;;5050743;28;20486;-95
2022/09/08 08:17:14;;;;;;;10.70;9.57;;;25.00;99.90;;;;;;5051629;28;20561;-94
2022/09/08 08:19:57;;;;;;;10.43;9.33;;;25.10;99.90;;;;;;5051405;28;20784;-90
2022/09/08 08:22:42;;;;;;;11.43;8.50;;;25.20;99.90;;;;;;5035637;28;21096;-95
2022/09/08 08:25:10;;;;;;;11.80;8.70;;;25.40;99.90;;;;;;5017310;28;20498;-94
2022/09/08 08:27:48;;;;;;;17.27;8.37;;;25.50;99.90;;;;;;5036992;28;20439;-92
2022/09/08 08:30:17;;;;;;;8.27;7.40;;;25.60;99.90;;;;;;5055463;28;20454;-89
2022/09/08 08:33:12;;;;;;;8.60;7.80;;;25.80;99.90;;;;;;5038676;28;20939;-95
2022/09/08 08:35:52;;;;;;;9.40;6.27;;;26.10;99.90;;;;;;5034239;28;20872;-89
2022/09/08 08:38:27;;;;;;;8.40;6.60;;;26.70;99.90;;;;;;5034045;28;20515;-89
2022/09/08 08:41:00;;;;;;;10.30;6.87;;;27.60;99.90;;;;;;5051640;28;20513;-94
2022/09/08 08:43:55;;;;;;;7.93;6.30;;;28.40;99.90;;;;;;5035111;28;20441;-96
2022/09/08 08:46:49;;;;;;;6.17;4.90;;;29.00;99.90;;;;;;5032568;28;20544;-90
2022/09/08 08:49:43;;;;;;;5.50;5.00;;;29.20;99.90;;;;;;5038153;28;20454;-93
2022/09/08 08:52:40;;;;;;;5.73;5.13;;;29.00;99.90;;;;;;5047005;28;20433;-89
2022/09/08 08:55:08;;;;;;;5.80;5.00;;;28.70;99.90;;;;;;5044909;28;20441;-89
2022/09/08 08:57:56;;;;;;;6.43;5.40;;;28.40;99.90;;;;;;5035402;28;20787;-95
2022/09/08 09:00:28;;;;;;;6.67;4.83;;;28.20;99.90;;;;;;5032087;28;20443;-90
2022/09/08 09:03:02;;;;;;;6.47;4.70;;;28.10;99.90;;;;;;5036379;28;20770;-88
2022/09/08 09:05:51;;;;;;;6.20;4.50;;;27.90;99.90;;;;;;5052171;28;20955;-89
2022/09/08 09:08:38;;;;;;;7.63;5.03;;;27.90;99.90;;;;;;5048749;28;20860;-90
2022/09/08 09:11:32;;;;;;;8.60;5.03;;;27.80;99.90;;;;;;5047477;28;20430;-89
2022/09/08 09:14:56;;;;;;;6.43;4.90;;;27.80;99.90;;;;;;5033980;28;20479;-93
2022/09/08 09:17:47;;;;;;;6.27;4.57;;;27.90;99.90;;;;;;4964290;28;20986;-88
2022/09/08 09:20:39;;;;;;;4.47;4.07;;;27.80;99.90;;;;;;5043834;28;20821;-89
2022/09/08 09:23:55;;;;;;;5.83;4.53;;;27.80;99.90;;;;;;5036595;28;20440;-94
2022/09/08 09:26:23;;;;;;;7.43;4.50;;;27.80;99.90;;;;;;4988453;28;21019;-90
2022/09/08 09:29:12;;;;;;;6.27;4.23;;;27.80;99.90;;;;;;5031143;28;20422;-95
2022/09/08 09:32:08;;;;;;;9.90;4.73;;;27.80;99.90;;;;;;5029824;28;20414;-93
2022/09/08 09:34:33;;;;;;;10.97;4.47;;;27.80;99.90;;;;;;5030979;28;20571;-93
2022/09/08 09:37:21;;;;;;;4.57;4.17;;;27.80;99.90;;;;;;5031646;28;20503;-96
2022/09/08 09:40:05;;;;;;;5.20;4.30;;;27.80;99.90;;;;;;5031054;28;20426;-94
2022/09/08 09:42:58;;;;;;;5.73;4.50;;;27.90;99.90;;;;;;5033420;28;20786;-94
2022/09/08 09:45:45;;;;;;;3.60;3.30;;;27.90;99.90;;;;;;5050765;28;20465;-95
2022/09/08 09:48:43;;;;;;;6.30;3.50;;;27.90;99.90;;;;;;5040367;28;20416;-96
2022/09/08 09:51:33;;;;;;;4.77;3.80;;;28.00;99.90;;;;;;5048642;28;20809;-89
2022/09/08 09:54:26;;;;;;;21.77;14.43;;;28.10;99.90;;;;;;5032901;28;20472;-96
2022/09/08 09:57:14;;;;;;;7.50;3.67;;;28.10;99.90;;;;;;5052874;28;20464;-89
2022/09/08 10:00:20;;;;;;;4.90;3.83;;;28.20;99.90;;;;;;5036635;28;20460;-90
2022/09/08 10:02:54;;;;;;;4.47;3.30;;;28.20;99.90;;;;;;5042707;28;20421;-90
2022/09/08 10:05:53;;;;;;;6.07;3.20;;;28.20;99.90;;;;;;5031864;28;20519;-90
2022/09/08 10:08:55;;;;;;;4.00;3.70;;;28.30;99.90;;;;;;5032402;28;20452;-89
2022/09/08 10:11:39;;;;;;;4.37;4.00;;;28.30;99.90;;;;;;5053351;28;20421;-95
2022/09/08 10:14:20;;;;;;;5.97;4.10;;;28.40;99.90;;;;;;5064214;28;20484;-94
2022/09/08 10:17:23;;;;;;;6.03;3.30;;;28.40;99.90;;;;;;5047988;28;20936;-95
2022/09/08 10:20:29;;;;;;;5.30;3.90;;;28.40;99.90;;;;;;5050817;28;20469;-90
2022/09/08 10:23:16;;;;;;;5.50;3.90;;;28.40;99.90;;;;;;5041942;28;20531;-89
2022/09/08 10:26:10;;;;;;;5.20;3.70;;;28.40;99.90;;;;;;5051762;28;20476;-93
2022/09/08 10:29:01;;;;;;;5.10;4.30;;;28.50;99.90;;;;;;5039259;28;20448;-89
2022/09/08 10:31:33;;;;;;;5.80;3.60;;;28.50;99.90;;;;;;5076019;28;20433;-90
2022/09/08 10:34:42;;;;;;;5.63;5.03;;;28.50;99.90;;;;;;5072549;28;20446;-89
2022/09/08 10:37:14;;;;;;;4.77;4.27;;;28.50;99.90;;;;;;5038758;28;20923;-89
2022/09/08 10:40:07;;;;;;;7.80;4.10;;;28.50;99.90;;;;;;5059554;28;20568;-90
2022/09/08 10:42:42;;;;;;;5.60;5.10;;;28.50;99.90;;;;;;5062638;28;20431;-94
2022/09/08 10:45:21;;;;;;;6.97;4.90;;;28.50;99.90;;;;;;5058423;28;20463;-94
2022/09/08 10:48:07;;;;;;;6.80;5.83;;;28.50;99.90;;;;;;5058272;28;20484;-94
2022/09/08 10:50:35;;;;;;;5.67;5.20;;;28.60;99.90;;;;;;5079005;28;20530;-95
2022/09/08 10:53:14;;;;;;;5.70;5.10;;;28.70;99.90;;;;;;5070249;28;20423;-90
2022/09/08 10:56:01;;;;;;;6.43;5.93;;;28.70;99.90;;;;;;5040233;28;21052;-95
2022/09/08 10:58:47;;;;;;;6.37;5.70;;;28.80;99.90;;;;;;5038157;28;20450;-90
2022/09/08 11:01:40;;;;;;;6.90;5.33;;;28.80;99.90;;;;;;5034594;28;20445;-94
2022/09/08 11:04:30;;;;;;;7.10;5.27;;;28.90;99.90;;;;;;5057618;28;20474;-94
2022/09/08 11:07:21;;;;;;;7.90;5.50;;;28.90;99.90;;;;;;5058701;28;20992;-91
2022/09/08 11:10:16;;;;;;;5.60;5.10;;;29.00;99.90;;;;;;5037456;28;20471;-89
2022/09/08 11:13:00;;;;;;;9.20;6.20;;;29.10;99.90;;;;;;5030582;28;20767;-95
2022/09/08 11:16:03;;;;;;;7.90;6.37;;;29.10;99.90;;;;;;5036493;28;20752;-96
2022/09/08 11:18:44;;;;;;;6.40;5.30;;;29.20;99.90;;;;;;5036686;28;20436;-90
2022/09/08 11:21:21;;;;;;;6.47;5.87;;;29.10;99.90;;;;;;5044765;28;20457;-89
2022/09/08 11:24:09;;;;;;;6.37;5.77;;;29.10;99.90;;;;;;5018622;28;20508;-95
2022/09/08 11:26:49;;;;;;;8.63;7.03;;;29.10;99.90;;;;;;5054945;28;20617;-90
2022/09/08 11:29:16;;;;;;;6.20;5.57;;;29.10;99.90;;;;;;5037852;28;20963;-95
2022/09/08 11:31:55;;;;;;;6.90;6.30;;;29.10;99.90;;;;;;5038210;28;20422;-95
2022/09/08 11:34:43;;;;;;;10.13;6.33;;;29.20;99.90;;;;;;5046810;28;20473;-94
2022/09/08 11:37:48;;;;;;;10.90;8.60;;;29.20;99.90;;;;;;5034833;28;20432;-89
2022/09/08 11:40:56;;;;;;;18.13;15.03;;;29.30;99.90;;;;;;5044395;28;20465;-91
2022/09/08 11:43:49;;;;;;;8.13;5.20;;;29.40;99.90;;;;;;5035458;28;20578;-93
2022/09/08 11:46:30;;;;;;;8.33;6.07;;;29.40;99.90;;;;;;5036258;28;21022;-91
2022/09/08 11:49:20;;;;;;;8.93;6.57;;;29.40;99.90;;;;;;5050907;28;20519;-91
2022/09/08 11:52:21;;;;;;;11.33;5.90;;;29.40;99.90;;;;;;5032890;28;20784;-96
2022/09/08 11:55:02;;;;;;;6.93;6.13;;;29.40;99.90;;;;;;5029515;28;20449;-90
2022/09/08 11:57:52;;;;;;;7.50;5.40;;;29.50;99.90;;;;;;5044697;28;20841;-90
2022/09/08 12:00:39;;;;;;;8.83;6.30;;;29.50;99.90;;;;;;5035118;28;21047;-90
2022/09/08 12:03:34;;;;;;;7.53;6.10;;;29.50;99.90;;;;;;5053752;28;20425;-90
2022/09/08 12:06:30;;;;;;;6.20;5.70;;;29.50;99.90;;;;;;5033833;28;20482;-89
2022/09/08 12:09:18;;;;;;;8.60;5.10;;;29.50;99.90;;;;;;5055330;28;20442;-90
2022/09/08 12:12:19;;;;;;;6.63;5.13;;;29.60;99.90;;;;;;5036445;28;20449;-95
2022/09/08 12:14:59;;;;;;;8.00;5.33;;;29.60;99.90;;;;;;5034452;28;20485;-90
2022/09/08 12:17:25;;;;;;;6.03;5.40;;;29.70;99.90;;;;;;5053280;28;20441;-90
2022/09/08 12:20:22;;;;;;;6.60;5.83;;;29.70;99.90;;;;;;5047492;28;20457;-90
2022/09/08 12:23:03;;;;;;;9.00;6.30;;;29.70;99.90;;;;;;5034769;28;20194;-94
2022/09/08 12:25:46;;;;;;;7.10;5.40;;;29.70;99.90;;;;;;5050296;28;20483;-90
2022/09/08 12:28:59;;;;;;;10.40;6.83;;;29.70;99.90;;;;;;5047094;28;20445;-94
2022/09/08 12:31:46;;;;;;;6.00;5.40;;;29.70;99.90;;;;;;5016939;28;20456;-90
2022/09/08 12:34:29;;;;;;;9.17;5.40;;;29.70;99.90;;;;;;5048357;28;20460;-92
2022/09/08 12:37:27;;;;;;;7.00;5.67;;;29.70;99.90;;;;;;5031687;28;20813;-94
2022/09/08 12:39:56;;;;;;;6.20;5.33;;;29.70;99.90;;;;;;5008582;28;20830;-95
2022/09/08 12:42:59;;;;;;;6.60;5.50;;;29.70;99.90;;;;;;5036349;28;20453;-90
2022/09/08 12:45:40;;;;;;;7.80;5.07;;;29.70;99.90;;;;;;5032813;28;20523;-94
2022/09/08 12:48:17;;;;;;;5.70;4.10;;;29.70;99.90;;;;;;5053893;28;20763;-95
2022/09/08 12:50:50;;;;;;;6.83;4.50;;;29.70;99.90;;;;;;5026561;28;20481;-95
2022/09/08 12:53:21;;;;;;;4.67;4.27;;;29.80;99.90;;;;;;5032787;28;20943;-96
2022/09/08 12:56:20;;;;;;;5.03;4.57;;;29.80;99.90;;;;;;5064108;28;20666;-94
2022/09/08 12:59:02;;;;;;;8.50;5.03;;;29.90;99.90;;;;;;5068543;28;20448;-95
2022/09/08 13:01:33;;;;;;;5.10;4.63;;;29.90;99.90;;;;;;5054853;28;20451;-90
2022/09/08 13:04:25;;;;;;;6.57;5.13;;;30.00;99.90;;;;;;5040752;28;20491;-90
2022/09/08 13:07:20;;;;;;;6.37;4.10;;;30.00;99.90;;;;;;5036560;28;20569;-95
2022/09/08 13:10:05;;;;;;;5.00;4.60;;;30.10;99.90;;;;;;5036855;28;20486;-90
2022/09/08 13:13:04;;;;;;;4.97;4.47;;;30.10;99.90;;;;;;5030799;28;20439;-94
2022/09/08 13:15:36;;;;;;;5.50;4.93;;;30.10;99.90;;;;;;5049638;28;20544;-90
2022/09/08 13:18:43;;;;;;;6.53;5.93;;;30.10;99.90;;;;;;5035114;28;20456;-90
2022/09/08 13:21:11;;;;;;;4.50;4.10;;;30.10;99.90;;;;;;5007541;28;20475;-90
2022/09/08 13:23:52;;;;;;;12.10;7.87;;;30.10;99.90;;;;;;5053294;28;20958;-94
2022/09/08 13:26:31;;;;;;;11.40;10.37;;;30.10;99.90;;;;;;5019306;28;20580;-95